sensor_id;sensor_type;location;lat;lon;timestamp;P1;durP1;ratioP1;P2;durP2;ratioP2
76194;SDS011;64964;48.694;21.206;2023-04-24T00:00:36;7.07;;;4.17;;
76194;SDS011;64964;48.694;21.206;2023-04-24T00:03:01;7.60;;;4.63;;
76194;SDS011;64964;48.694;21.206;2023-04-24T00:05:28;8.60;;;4.68;;
76194;SDS011;64964;48.694;21.206;2023-04-24T00:07:53;8.33;;;4.70;;
76194;SDS011;64964;48.694;21.206;2023-04-24T00:10:19;8.65;;;4.57;;
76194;SDS011;64964;48.694;21.206;2023-04-24T00:12:45;10.47;;;5.00;;
76194;SDS011;64964;48.694;21.206;2023-04-24T00:15:10;8.77;;;4.87;;
76194;SDS011;64964;48.694;21.206;2023-04-24T00:17:36;13.40;;;4.77;;
76194;SDS011;64964;48.694;21.206;2023-04-24T00:20:02;8.05;;;4.43;;
76194;SDS011;64964;48.694;21.206;2023-04-24T00:22:29;10.27;;;4.82;;
76194;SDS011;64964;48.694;21.206;2023-04-24T00:24:55;7.18;;;4.60;;
76194;SDS011;64964;48.694;21.206;2023-04-24T00:27:21;8.60;;;4.73;;
76194;SDS011;64964;48.694;21.206;2023-04-24T00:29:47;9.30;;;4.35;;
76194;SDS011;64964;48.694;21.206;2023-04-24T00:32:12;8.70;;;4.57;;
76194;SDS011;64964;48.694;21.206;2023-04-24T00:34:38;5.90;;;4.30;;
76194;SDS011;64964;48.694;21.206;2023-04-24T00:37:04;7.97;;;5.13;;
76194;SDS011;64964;48.694;21.206;2023-04-24T00:39:30;6.38;;;4.63;;
76194;SDS011;64964;48.694;21.206;2023-04-24T00:41:55;9.10;;;4.80;;
76194;SDS011;64964;48.694;21.206;2023-04-24T00:44:21;9.50;;;4.53;;
76194;SDS011;64964;48.694;21.206;2023-04-24T00:46:47;6.23;;;4.40;;
76194;SDS011;64964;48.694;21.206;2023-04-24T00:49:17;7.70;;;4.50;;
76194;SDS011;64964;48.694;21.206;2023-04-24T00:51:43;6.45;;;3.95;;
76194;SDS011;64964;48.694;21.206;2023-04-24T00:54:11;6.78;;;4.40;;
76194;SDS011;64964;48.694;21.206;2023-04-24T00:56:37;6.13;;;4.23;;
76194;SDS011;64964;48.694;21.206;2023-04-24T00:59:02;8.55;;;4.43;;
76194;SDS011;64964;48.694;21.206;2023-04-24T01:01:29;9.43;;;4.30;;
76194;SDS011;64964;48.694;21.206;2023-04-24T01:03:55;9.40;;;4.27;;
76194;SDS011;64964;48.694;21.206;2023-04-24T01:06:22;6.72;;;4.38;;
76194;SDS011;64964;48.694;21.206;2023-04-24T01:08:52;6.53;;;4.15;;
76194;SDS011;64964;48.694;21.206;2023-04-24T01:11:17;10.67;;;4.70;;
76194;SDS011;64964;48.694;21.206;2023-04-24T01:13:42;8.40;;;4.18;;
76194;SDS011;64964;48.694;21.206;2023-04-24T01:16:08;8.77;;;4.10;;
76194;SDS011;64964;48.694;21.206;2023-04-24T01:18:33;7.87;;;4.20;;
76194;SDS011;64964;48.694;21.206;2023-04-24T01:20:59;6.50;;;4.10;;
76194;SDS011;64964;48.694;21.206;2023-04-24T01:23:27;5.97;;;4.05;;
76194;SDS011;64964;48.694;21.206;2023-04-24T01:25:53;7.37;;;4.30;;
76194;SDS011;64964;48.694;21.206;2023-04-24T01:28:19;6.20;;;4.50;;
76194;SDS011;64964;48.694;21.206;2023-04-24T01:30:44;9.00;;;5.43;;
76194;SDS011;64964;48.694;21.206;2023-04-24T01:33:10;7.13;;;4.38;;
76194;SDS011;64964;48.694;21.206;2023-04-24T01:35:36;8.90;;;4.20;;
76194;SDS011;64964;48.694;21.206;2023-04-24T01:38:02;8.00;;;4.20;;
76194;SDS011;64964;48.694;21.206;2023-04-24T01:40:28;7.95;;;4.38;;
76194;SDS011;64964;48.694;21.206;2023-04-24T01:42:53;11.33;;;4.60;;
76194;SDS011;64964;48.694;21.206;2023-04-24T01:45:19;7.37;;;4.10;;
76194;SDS011;64964;48.694;21.206;2023-04-24T01:47:45;7.63;;;4.63;;
76194;SDS011;64964;48.694;21.206;2023-04-24T01:50:12;11.35;;;4.53;;
76194;SDS011;64964;48.694;21.206;2023-04-24T01:52:37;8.37;;;4.50;;
76194;SDS011;64964;48.694;21.206;2023-04-24T01:55:03;8.05;;;4.53;;
76194;SDS011;64964;48.694;21.206;2023-04-24T01:57:29;9.73;;;4.95;;
76194;SDS011;64964;48.694;21.206;2023-04-24T01:59:56;8.13;;;4.70;;
76194;SDS011;64964;48.694;21.206;2023-04-24T02:02:21;9.15;;;4.53;;
76194;SDS011;64964;48.694;21.206;2023-04-24T02:04:49;8.27;;;4.50;;
76194;SDS011;64964;48.694;21.206;2023-04-24T02:07:14;9.77;;;5.15;;
76194;SDS011;64964;48.694;21.206;2023-04-24T02:09:40;8.17;;;4.63;;
76194;SDS011;64964;48.694;21.206;2023-04-24T02:12:05;7.97;;;4.63;;
76194;SDS011;64964;48.694;21.206;2023-04-24T02:14:30;10.37;;;5.07;;
76194;SDS011;64964;48.694;21.206;2023-04-24T02:16:56;8.10;;;4.97;;
76194;SDS011;64964;48.694;21.206;2023-04-24T02:19:21;9.65;;;5.07;;
76194;SDS011;64964;48.694;21.206;2023-04-24T02:21:47;8.17;;;4.93;;
76194;SDS011;64964;48.694;21.206;2023-04-24T02:24:12;8.50;;;5.03;;
76194;SDS011;64964;48.694;21.206;2023-04-24T02:26:37;7.27;;;4.80;;
76194;SDS011;64964;48.694;21.206;2023-04-24T02:29:03;7.67;;;4.77;;
76194;SDS011;64964;48.694;21.206;2023-04-24T02:31:28;11.13;;;4.60;;
76194;SDS011;64964;48.694;21.206;2023-04-24T02:33:53;12.90;;;5.23;;
76194;SDS011;64964;48.694;21.206;2023-04-24T02:36:19;9.53;;;5.33;;
76194;SDS011;64964;48.694;21.206;2023-04-24T02:38:44;11.47;;;5.63;;
76194;SDS011;64964;48.694;21.206;2023-04-24T02:41:10;11.82;;;5.95;;
76194;SDS011;64964;48.694;21.206;2023-04-24T02:43:35;11.33;;;5.37;;
76194;SDS011;64964;48.694;21.206;2023-04-24T02:46:01;16.73;;;6.05;;
76194;SDS011;64964;48.694;21.206;2023-04-24T02:48:26;12.67;;;6.30;;
76194;SDS011;64964;48.694;21.206;2023-04-24T02:50:52;15.93;;;6.53;;
76194;SDS011;64964;48.694;21.206;2023-04-24T02:53:18;14.27;;;6.88;;
76194;SDS011;64964;48.694;21.206;2023-04-24T02:55:43;19.40;;;7.27;;
76194;SDS011;64964;48.694;21.206;2023-04-24T02:58:08;15.17;;;6.93;;
76194;SDS011;64964;48.694;21.206;2023-04-24T03:00:35;18.77;;;7.28;;
76194;SDS011;64964;48.694;21.206;2023-04-24T03:03:00;19.50;;;7.97;;
76194;SDS011;64964;48.694;21.206;2023-04-24T03:05:26;24.88;;;8.75;;
76194;SDS011;64964;48.694;21.206;2023-04-24T03:07:52;23.55;;;8.90;;
76194;SDS011;64964;48.694;21.206;2023-04-24T03:10:17;24.60;;;8.47;;
76194;SDS011;64964;48.694;21.206;2023-04-24T03:12:43;22.70;;;9.20;;
76194;SDS011;64964;48.694;21.206;2023-04-24T03:15:09;25.55;;;9.75;;
76194;SDS011;64964;48.694;21.206;2023-04-24T03:17:34;21.87;;;9.40;;
76194;SDS011;64964;48.694;21.206;2023-04-24T03:20:00;22.83;;;8.02;;
76194;SDS011;64964;48.694;21.206;2023-04-24T03:22:26;16.02;;;6.93;;
76194;SDS011;64964;48.694;21.206;2023-04-24T03:24:51;13.43;;;5.77;;
76194;SDS011;64964;48.694;21.206;2023-04-24T03:27:17;15.87;;;7.07;;
76194;SDS011;64964;48.694;21.206;2023-04-24T03:29:42;15.57;;;5.77;;
76194;SDS011;64964;48.694;21.206;2023-04-24T03:32:07;10.77;;;5.50;;
76194;SDS011;64964;48.694;21.206;2023-04-24T03:34:33;12.07;;;5.22;;
76194;SDS011;64964;48.694;21.206;2023-04-24T03:36:58;10.60;;;5.80;;
76194;SDS011;64964;48.694;21.206;2023-04-24T03:39:23;11.57;;;5.23;;
76194;SDS011;64964;48.694;21.206;2023-04-24T03:41:50;13.70;;;5.75;;
76194;SDS011;64964;48.694;21.206;2023-04-24T03:44:15;13.60;;;5.80;;
76194;SDS011;64964;48.694;21.206;2023-04-24T03:46:40;15.40;;;5.60;;
76194;SDS011;64964;48.694;21.206;2023-04-24T03:49:06;10.00;;;4.80;;
76194;SDS011;64964;48.694;21.206;2023-04-24T03:51:31;9.70;;;4.88;;
76194;SDS011;64964;48.694;21.206;2023-04-24T03:53:57;9.67;;;4.80;;
76194;SDS011;64964;48.694;21.206;2023-04-24T03:56:22;10.23;;;4.97;;
76194;SDS011;64964;48.694;21.206;2023-04-24T03:58:47;8.30;;;4.43;;
76194;SDS011;64964;48.694;21.206;2023-04-24T04:01:13;8.90;;;4.60;;
76194;SDS011;64964;48.694;21.206;2023-04-24T04:03:40;7.70;;;4.45;;
76194;SDS011;64964;48.694;21.206;2023-04-24T04:06:06;9.83;;;4.60;;
76194;SDS011;64964;48.694;21.206;2023-04-24T04:08:31;8.57;;;4.60;;
76194;SDS011;64964;48.694;21.206;2023-04-24T04:10:57;9.10;;;4.60;;
76194;SDS011;64964;48.694;21.206;2023-04-24T04:13:22;8.80;;;4.43;;
76194;SDS011;64964;48.694;21.206;2023-04-24T04:15:47;11.33;;;4.43;;
76194;SDS011;64964;48.694;21.206;2023-04-24T04:18:13;7.93;;;4.50;;
76194;SDS011;64964;48.694;21.206;2023-04-24T04:20:38;5.17;;;3.90;;
76194;SDS011;64964;48.694;21.206;2023-04-24T04:23:03;6.83;;;4.30;;
76194;SDS011;64964;48.694;21.206;2023-04-24T04:25:29;7.63;;;4.30;;
76194;SDS011;64964;48.694;21.206;2023-04-24T04:27:54;10.50;;;4.67;;
76194;SDS011;64964;48.694;21.206;2023-04-24T04:30:20;9.30;;;4.85;;
76194;SDS011;64964;48.694;21.206;2023-04-24T04:32:46;10.70;;;5.30;;
76194;SDS011;64964;48.694;21.206;2023-04-24T04:35:11;10.88;;;4.90;;
76194;SDS011;64964;48.694;21.206;2023-04-24T04:37:37;9.07;;;4.43;;
76194;SDS011;64964;48.694;21.206;2023-04-24T04:40:03;8.02;;;4.70;;
76194;SDS011;64964;48.694;21.206;2023-04-24T04:42:32;7.53;;;4.65;;
76194;SDS011;64964;48.694;21.206;2023-04-24T04:45:01;7.47;;;4.93;;
76194;SDS011;64964;48.694;21.206;2023-04-24T04:47:27;8.65;;;4.50;;
76194;SDS011;64964;48.694;21.206;2023-04-24T04:49:53;6.97;;;5.03;;
76194;SDS011;64964;48.694;21.206;2023-04-24T04:52:19;6.75;;;4.35;;
76194;SDS011;64964;48.694;21.206;2023-04-24T04:54:44;7.77;;;4.83;;
76194;SDS011;64964;48.694;21.206;2023-04-24T04:57:10;9.37;;;5.03;;
76194;SDS011;64964;48.694;21.206;2023-04-24T04:59:35;10.57;;;4.82;;
76194;SDS011;64964;48.694;21.206;2023-04-24T05:02:02;8.27;;;5.00;;
76194;SDS011;64964;48.694;21.206;2023-04-24T05:04:27;8.40;;;5.07;;
76194;SDS011;64964;48.694;21.206;2023-04-24T05:06:53;8.80;;;4.70;;
76194;SDS011;64964;48.694;21.206;2023-04-24T05:09:18;10.32;;;4.63;;
76194;SDS011;64964;48.694;21.206;2023-04-24T05:11:44;6.47;;;4.77;;
76194;SDS011;64964;48.694;21.206;2023-04-24T05:14:09;8.87;;;4.80;;
76194;SDS011;64964;48.694;21.206;2023-04-24T05:16:35;6.72;;;4.93;;
76194;SDS011;64964;48.694;21.206;2023-04-24T05:19:02;9.90;;;5.07;;
76194;SDS011;64964;48.694;21.206;2023-04-24T05:21:27;9.52;;;5.15;;
76194;SDS011;64964;48.694;21.206;2023-04-24T05:23:52;7.23;;;4.87;;
76194;SDS011;64964;48.694;21.206;2023-04-24T05:26:18;5.70;;;5.10;;
76194;SDS011;64964;48.694;21.206;2023-04-24T05:28:44;7.70;;;5.13;;
76194;SDS011;64964;48.694;21.206;2023-04-24T05:31:09;7.23;;;5.00;;
76194;SDS011;64964;48.694;21.206;2023-04-24T05:33:35;7.45;;;5.15;;
76194;SDS011;64964;48.694;21.206;2023-04-24T05:36:00;8.53;;;5.07;;
76194;SDS011;64964;48.694;21.206;2023-04-24T05:38:25;7.43;;;4.97;;
76194;SDS011;64964;48.694;21.206;2023-04-24T05:40:51;8.07;;;5.07;;
76194;SDS011;64964;48.694;21.206;2023-04-24T05:43:16;10.10;;;5.82;;
76194;SDS011;64964;48.694;21.206;2023-04-24T05:45:42;12.90;;;5.73;;
76194;SDS011;64964;48.694;21.206;2023-04-24T05:48:07;13.27;;;5.97;;
76194;SDS011;64964;48.694;21.206;2023-04-24T05:50:32;9.73;;;6.03;;
76194;SDS011;64964;48.694;21.206;2023-04-24T05:52:58;11.73;;;5.97;;
76194;SDS011;64964;48.694;21.206;2023-04-24T05:55:24;14.87;;;5.63;;
76194;SDS011;64964;48.694;21.206;2023-04-24T05:57:50;15.82;;;5.97;;
76194;SDS011;64964;48.694;21.206;2023-04-24T06:00:15;20.73;;;9.70;;
76194;SDS011;64964;48.694;21.206;2023-04-24T06:02:42;18.88;;;9.13;;
76194;SDS011;64964;48.694;21.206;2023-04-24T06:05:08;20.17;;;9.30;;
76194;SDS011;64964;48.694;21.206;2023-04-24T06:07:33;9.80;;;5.20;;
76194;SDS011;64964;48.694;21.206;2023-04-24T06:09:59;7.22;;;5.05;;
76194;SDS011;64964;48.694;21.206;2023-04-24T06:12:25;11.77;;;5.20;;
76194;SDS011;64964;48.694;21.206;2023-04-24T06:14:50;7.68;;;5.18;;
76194;SDS011;64964;48.694;21.206;2023-04-24T06:17:16;7.40;;;5.25;;
76194;SDS011;64964;48.694;21.206;2023-04-24T06:19:41;8.20;;;5.03;;
76194;SDS011;64964;48.694;21.206;2023-04-24T06:22:07;7.63;;;5.37;;
76194;SDS011;64964;48.694;21.206;2023-04-24T06:24:33;8.57;;;5.27;;
76194;SDS011;64964;48.694;21.206;2023-04-24T06:26:59;7.32;;;5.32;;
76194;SDS011;64964;48.694;21.206;2023-04-24T06:29:25;8.15;;;5.13;;
76194;SDS011;64964;48.694;21.206;2023-04-24T06:31:50;13.53;;;5.50;;
76194;SDS011;64964;48.694;21.206;2023-04-24T06:34:16;11.23;;;5.40;;
76194;SDS011;64964;48.694;21.206;2023-04-24T06:36:41;14.10;;;7.20;;
76194;SDS011;64964;48.694;21.206;2023-04-24T06:39:07;8.90;;;5.50;;
76194;SDS011;64964;48.694;21.206;2023-04-24T06:41:32;9.33;;;4.97;;
76194;SDS011;64964;48.694;21.206;2023-04-24T06:43:57;8.45;;;5.30;;
76194;SDS011;64964;48.694;21.206;2023-04-24T06:46:23;7.97;;;5.17;;
76194;SDS011;64964;48.694;21.206;2023-04-24T06:48:51;7.20;;;4.57;;
76194;SDS011;64964;48.694;21.206;2023-04-24T06:51:21;9.33;;;5.10;;
76194;SDS011;64964;48.694;21.206;2023-04-24T06:53:51;8.57;;;5.10;;
76194;SDS011;64964;48.694;21.206;2023-04-24T06:56:17;7.68;;;5.07;;
76194;SDS011;64964;48.694;21.206;2023-04-24T06:58:42;9.73;;;4.63;;
76194;SDS011;64964;48.694;21.206;2023-04-24T07:01:08;7.33;;;5.00;;
76194;SDS011;64964;48.694;21.206;2023-04-24T07:03:33;9.15;;;4.85;;
76194;SDS011;64964;48.694;21.206;2023-04-24T07:05:59;7.53;;;4.80;;
76194;SDS011;64964;48.694;21.206;2023-04-24T07:08:24;7.13;;;5.07;;
76194;SDS011;64964;48.694;21.206;2023-04-24T07:10:50;6.80;;;5.05;;
76194;SDS011;64964;48.694;21.206;2023-04-24T07:13:16;6.53;;;5.70;;
76194;SDS011;64964;48.694;21.206;2023-04-24T07:15:42;9.77;;;5.50;;
76194;SDS011;64964;48.694;21.206;2023-04-24T07:18:07;9.70;;;5.30;;
76194;SDS011;64964;48.694;21.206;2023-04-24T07:20:33;6.80;;;5.00;;
76194;SDS011;64964;48.694;21.206;2023-04-24T07:22:59;7.20;;;5.38;;
76194;SDS011;64964;48.694;21.206;2023-04-24T07:25:24;9.40;;;5.63;;
76194;SDS011;64964;48.694;21.206;2023-04-24T07:27:50;8.00;;;5.50;;
76194;SDS011;64964;48.694;21.206;2023-04-24T07:30:15;7.20;;;5.47;;
76194;SDS011;64964;48.694;21.206;2023-04-24T07:32:40;6.80;;;5.18;;
76194;SDS011;64964;48.694;21.206;2023-04-24T07:35:06;11.13;;;5.47;;
76194;SDS011;64964;48.694;21.206;2023-04-24T07:37:31;9.57;;;5.40;;
76194;SDS011;64964;48.694;21.206;2023-04-24T07:39:57;8.27;;;5.90;;
76194;SDS011;64964;48.694;21.206;2023-04-24T07:42:22;7.40;;;5.70;;
76194;SDS011;64964;48.694;21.206;2023-04-24T07:44:48;7.50;;;5.43;;
76194;SDS011;64964;48.694;21.206;2023-04-24T07:47:14;8.05;;;6.22;;
76194;SDS011;64964;48.694;21.206;2023-04-24T07:49:42;9.60;;;5.72;;
76194;SDS011;64964;48.694;21.206;2023-04-24T07:52:08;10.93;;;6.07;;
76194;SDS011;64964;48.694;21.206;2023-04-24T07:54:33;9.03;;;5.87;;
76194;SDS011;64964;48.694;21.206;2023-04-24T07:56:58;10.23;;;5.93;;
76194;SDS011;64964;48.694;21.206;2023-04-24T07:59:25;9.33;;;6.00;;
76194;SDS011;64964;48.694;21.206;2023-04-24T08:01:50;8.57;;;6.25;;
76194;SDS011;64964;48.694;21.206;2023-04-24T08:04:16;11.10;;;5.87;;
76194;SDS011;64964;48.694;21.206;2023-04-24T08:06:42;9.95;;;5.70;;
76194;SDS011;64964;48.694;21.206;2023-04-24T08:09:08;20.73;;;7.50;;
76194;SDS011;64964;48.694;21.206;2023-04-24T08:11:34;14.10;;;6.75;;
76194;SDS011;64964;48.694;21.206;2023-04-24T08:13:59;11.73;;;6.90;;
76194;SDS011;64964;48.694;21.206;2023-04-24T08:16:24;11.43;;;6.67;;
76194;SDS011;64964;48.694;21.206;2023-04-24T08:18:50;17.10;;;7.07;;
76194;SDS011;64964;48.694;21.206;2023-04-24T08:21:16;13.48;;;7.80;;
76194;SDS011;64964;48.694;21.206;2023-04-24T08:23:43;14.40;;;7.53;;
76194;SDS011;64964;48.694;21.206;2023-04-24T08:26:09;18.50;;;9.00;;
76194;SDS011;64964;48.694;21.206;2023-04-24T08:28:36;15.82;;;7.70;;
76194;SDS011;64964;48.694;21.206;2023-04-24T08:31:01;12.13;;;8.00;;
76194;SDS011;64964;48.694;21.206;2023-04-24T08:33:27;17.43;;;7.97;;
76194;SDS011;64964;48.694;21.206;2023-04-24T08:35:57;11.70;;;6.15;;
76194;SDS011;64964;48.694;21.206;2023-04-24T08:38:25;9.48;;;6.88;;
76194;SDS011;64964;48.694;21.206;2023-04-24T08:40:50;12.37;;;6.10;;
76194;SDS011;64964;48.694;21.206;2023-04-24T08:43:16;10.07;;;6.15;;
76194;SDS011;64964;48.694;21.206;2023-04-24T08:45:42;10.77;;;6.67;;
76194;SDS011;64964;48.694;21.206;2023-04-24T08:48:07;10.47;;;6.03;;
76194;SDS011;64964;48.694;21.206;2023-04-24T08:50:34;11.43;;;5.82;;
76194;SDS011;64964;48.694;21.206;2023-04-24T08:53:00;9.27;;;6.13;;
76194;SDS011;64964;48.694;21.206;2023-04-24T08:55:26;12.73;;;6.10;;
76194;SDS011;64964;48.694;21.206;2023-04-24T08:57:52;7.47;;;5.80;;
76194;SDS011;64964;48.694;21.206;2023-04-24T09:00:19;6.55;;;5.60;;
76194;SDS011;64964;48.694;21.206;2023-04-24T09:02:45;9.65;;;5.65;;
76194;SDS011;64964;48.694;21.206;2023-04-24T09:05:13;10.73;;;5.63;;
76194;SDS011;64964;48.694;21.206;2023-04-24T09:07:41;9.13;;;5.18;;
76194;SDS011;64964;48.694;21.206;2023-04-24T09:10:11;7.30;;;5.30;;
76194;SDS011;64964;48.694;21.206;2023-04-24T09:12:37;7.57;;;5.47;;
76194;SDS011;64964;48.694;21.206;2023-04-24T09:15:03;9.00;;;5.50;;
76194;SDS011;64964;48.694;21.206;2023-04-24T09:17:30;7.20;;;4.93;;
76194;SDS011;64964;48.694;21.206;2023-04-24T09:19:56;8.90;;;5.65;;
76194;SDS011;64964;48.694;21.206;2023-04-24T09:22:21;8.27;;;5.23;;
76194;SDS011;64964;48.694;21.206;2023-04-24T09:24:47;6.23;;;5.53;;
76194;SDS011;64964;48.694;21.206;2023-04-24T09:27:13;8.23;;;5.72;;
76194;SDS011;64964;48.694;21.206;2023-04-24T09:29:47;8.07;;;6.03;;
76194;SDS011;64964;48.694;21.206;2023-04-24T09:32:22;7.90;;;5.63;;
76194;SDS011;64964;48.694;21.206;2023-04-24T09:34:50;8.75;;;5.88;;
76194;SDS011;64964;48.694;21.206;2023-04-24T09:37:34;8.45;;;6.18;;
76194;SDS011;64964;48.694;21.206;2023-04-24T09:40:14;9.02;;;5.85;;
76194;SDS011;64964;48.694;21.206;2023-04-24T09:42:45;9.50;;;5.88;;
76194;SDS011;64964;48.694;21.206;2023-04-24T09:45:44;10.82;;;5.90;;
76194;SDS011;64964;48.694;21.206;2023-04-24T09:48:09;7.70;;;5.77;;
76194;SDS011;64964;48.694;21.206;2023-04-24T09:50:35;8.60;;;5.87;;
76194;SDS011;64964;48.694;21.206;2023-04-24T09:53:02;9.07;;;5.70;;
76194;SDS011;64964;48.694;21.206;2023-04-24T09:55:29;8.30;;;5.50;;
76194;SDS011;64964;48.694;21.206;2023-04-24T09:57:56;8.67;;;5.73;;
76194;SDS011;64964;48.694;21.206;2023-04-24T10:00:25;8.93;;;5.93;;
76194;SDS011;64964;48.694;21.206;2023-04-24T10:05:25;8.05;;;6.10;;
76194;SDS011;64964;48.694;21.206;2023-04-24T10:07:55;9.10;;;6.22;;
76194;SDS011;64964;48.694;21.206;2023-04-24T10:10:22;11.00;;;5.80;;
76194;SDS011;64964;48.694;21.206;2023-04-24T10:12:48;10.57;;;5.53;;
76194;SDS011;64964;48.694;21.206;2023-04-24T10:15:16;9.07;;;6.10;;
76194;SDS011;64964;48.694;21.206;2023-04-24T10:17:45;8.85;;;6.15;;
76194;SDS011;64964;48.694;21.206;2023-04-24T10:20:17;11.25;;;5.35;;
76194;SDS011;64964;48.694;21.206;2023-04-24T10:22:47;10.53;;;5.37;;
76194;SDS011;64964;48.694;21.206;2023-04-24T10:25:18;10.05;;;5.25;;
76194;SDS011;64964;48.694;21.206;2023-04-24T10:27:45;10.43;;;4.95;;
76194;SDS011;64964;48.694;21.206;2023-04-24T10:30:12;6.72;;;4.60;;
76194;SDS011;64964;48.694;21.206;2023-04-24T10:32:38;10.57;;;4.83;;
76194;SDS011;64964;48.694;21.206;2023-04-24T10:35:03;7.27;;;4.50;;
76194;SDS011;64964;48.694;21.206;2023-04-24T10:37:34;9.05;;;5.10;;
76194;SDS011;64964;48.694;21.206;2023-04-24T10:40:01;10.40;;;5.00;;
76194;SDS011;64964;48.694;21.206;2023-04-24T10:42:27;9.20;;;5.07;;
76194;SDS011;64964;48.694;21.206;2023-04-24T10:44:53;15.02;;;5.38;;
76194;SDS011;64964;48.694;21.206;2023-04-24T10:47:19;9.53;;;5.37;;
76194;SDS011;64964;48.694;21.206;2023-04-24T10:49:44;7.50;;;5.03;;
76194;SDS011;64964;48.694;21.206;2023-04-24T10:52:10;9.75;;;5.05;;
76194;SDS011;64964;48.694;21.206;2023-04-24T10:59:42;8.48;;;5.25;;
76194;SDS011;64964;48.694;21.206;2023-04-24T11:02:09;7.03;;;5.60;;
76194;SDS011;64964;48.694;21.206;2023-04-24T11:04:34;8.23;;;5.80;;
76194;SDS011;64964;48.694;21.206;2023-04-24T11:07:02;11.43;;;5.65;;
76194;SDS011;64964;48.694;21.206;2023-04-24T11:09:31;11.37;;;5.77;;
76194;SDS011;64964;48.694;21.206;2023-04-24T11:12:04;12.95;;;5.53;;
76194;SDS011;64964;48.694;21.206;2023-04-24T11:17:33;10.40;;;5.97;;
76194;SDS011;64964;48.694;21.206;2023-04-24T11:20:05;12.02;;;5.80;;
76194;SDS011;64964;48.694;21.206;2023-04-24T11:22:41;8.93;;;6.03;;
76194;SDS011;64964;48.694;21.206;2023-04-24T11:25:07;10.88;;;5.78;;
76194;SDS011;64964;48.694;21.206;2023-04-24T11:27:43;9.80;;;5.75;;
76194;SDS011;64964;48.694;21.206;2023-04-24T11:30:11;10.10;;;5.63;;
76194;SDS011;64964;48.694;21.206;2023-04-24T11:32:37;13.40;;;6.03;;
76194;SDS011;64964;48.694;21.206;2023-04-24T11:35:08;9.43;;;6.10;;
76194;SDS011;64964;48.694;21.206;2023-04-24T11:40:01;8.53;;;5.93;;
76194;SDS011;64964;48.694;21.206;2023-04-24T11:42:27;11.13;;;6.23;;
76194;SDS011;64964;48.694;21.206;2023-04-24T11:44:53;10.23;;;6.28;;
76194;SDS011;64964;48.694;21.206;2023-04-24T11:47:31;9.88;;;6.30;;
76194;SDS011;64964;48.694;21.206;2023-04-24T11:49:58;8.45;;;5.93;;
76194;SDS011;64964;48.694;21.206;2023-04-24T11:52:29;11.88;;;6.60;;
76194;SDS011;64964;48.694;21.206;2023-04-24T11:54:55;7.53;;;5.93;;
76194;SDS011;64964;48.694;21.206;2023-04-24T11:57:24;8.57;;;5.97;;
76194;SDS011;64964;48.694;21.206;2023-04-24T11:59:53;8.38;;;5.97;;
76194;SDS011;64964;48.694;21.206;2023-04-24T12:04:48;12.32;;;7.20;;
76194;SDS011;64964;48.694;21.206;2023-04-24T12:07:13;8.70;;;5.90;;
76194;SDS011;64964;48.694;21.206;2023-04-24T12:09:48;10.90;;;6.33;;
76194;SDS011;64964;48.694;21.206;2023-04-24T12:12:20;8.05;;;6.28;;
76194;SDS011;64964;48.694;21.206;2023-04-24T12:14:48;8.10;;;6.23;;
76194;SDS011;64964;48.694;21.206;2023-04-24T12:17:15;9.95;;;6.18;;
76194;SDS011;64964;48.694;21.206;2023-04-24T12:19:45;8.68;;;6.60;;
76194;SDS011;64964;48.694;21.206;2023-04-24T12:22:12;9.13;;;6.50;;
76194;SDS011;64964;48.694;21.206;2023-04-24T12:24:55;8.67;;;7.07;;
76194;SDS011;64964;48.694;21.206;2023-04-24T12:27:21;10.95;;;6.95;;
76194;SDS011;64964;48.694;21.206;2023-04-24T12:29:51;9.37;;;6.63;;
76194;SDS011;64964;48.694;21.206;2023-04-24T12:32:18;11.80;;;7.15;;
76194;SDS011;64964;48.694;21.206;2023-04-24T12:34:44;7.90;;;6.05;;
76194;SDS011;64964;48.694;21.206;2023-04-24T12:37:10;9.73;;;6.60;;
76194;SDS011;64964;48.694;21.206;2023-04-24T12:39:36;9.85;;;6.45;;
76194;SDS011;64964;48.694;21.206;2023-04-24T12:42:01;8.47;;;6.20;;
76194;SDS011;64964;48.694;21.206;2023-04-24T12:44:30;8.00;;;5.60;;
76194;SDS011;64964;48.694;21.206;2023-04-24T12:46:59;7.65;;;5.85;;
76194;SDS011;64964;48.694;21.206;2023-04-24T12:49:25;7.10;;;5.38;;
76194;SDS011;64964;48.694;21.206;2023-04-24T12:51:51;7.17;;;5.40;;
76194;SDS011;64964;48.694;21.206;2023-04-24T12:54:16;6.90;;;5.13;;
76194;SDS011;64964;48.694;21.206;2023-04-24T12:56:41;7.17;;;5.63;;
76194;SDS011;64964;48.694;21.206;2023-04-24T12:59:07;8.67;;;5.23;;
76194;SDS011;64964;48.694;21.206;2023-04-24T13:01:32;7.47;;;5.70;;
76194;SDS011;64964;48.694;21.206;2023-04-24T13:03:58;7.47;;;5.93;;
76194;SDS011;64964;48.694;21.206;2023-04-24T13:06:23;8.82;;;6.20;;
76194;SDS011;64964;48.694;21.206;2023-04-24T13:08:48;11.40;;;6.10;;
76194;SDS011;64964;48.694;21.206;2023-04-24T13:11:14;6.73;;;5.87;;
76194;SDS011;64964;48.694;21.206;2023-04-24T13:13:39;10.10;;;6.00;;
76194;SDS011;64964;48.694;21.206;2023-04-24T13:16:04;7.55;;;5.97;;
76194;SDS011;64964;48.694;21.206;2023-04-24T13:18:30;9.17;;;6.67;;
76194;SDS011;64964;48.694;21.206;2023-04-24T13:20:55;12.07;;;7.23;;
76194;SDS011;64964;48.694;21.206;2023-04-24T13:23:21;11.00;;;7.00;;
76194;SDS011;64964;48.694;21.206;2023-04-24T13:25:47;11.63;;;7.82;;
76194;SDS011;64964;48.694;21.206;2023-04-24T13:28:13;9.32;;;7.43;;
76194;SDS011;64964;48.694;21.206;2023-04-24T13:30:38;9.50;;;7.57;;
76194;SDS011;64964;48.694;21.206;2023-04-24T13:33:04;9.53;;;6.90;;
76194;SDS011;64964;48.694;21.206;2023-04-24T13:35:29;10.43;;;7.13;;
76194;SDS011;64964;48.694;21.206;2023-04-24T13:37:55;8.82;;;6.75;;
76194;SDS011;64964;48.694;21.206;2023-04-24T13:40:20;9.43;;;7.40;;
76194;SDS011;64964;48.694;21.206;2023-04-24T13:42:45;9.37;;;6.27;;
76194;SDS011;64964;48.694;21.206;2023-04-24T13:45:11;9.40;;;7.30;;
76194;SDS011;64964;48.694;21.206;2023-04-24T13:47:36;12.00;;;7.10;;
76194;SDS011;64964;48.694;21.206;2023-04-24T13:50:02;10.17;;;7.90;;
76194;SDS011;64964;48.694;21.206;2023-04-24T13:52:28;9.43;;;6.80;;
76194;SDS011;64964;48.694;21.206;2023-04-24T13:54:53;10.23;;;7.33;;
76194;SDS011;64964;48.694;21.206;2023-04-24T13:57:18;9.27;;;7.37;;
76194;SDS011;64964;48.694;21.206;2023-04-24T13:59:44;9.10;;;7.07;;
76194;SDS011;64964;48.694;21.206;2023-04-24T14:02:10;8.63;;;7.13;;
76194;SDS011;64964;48.694;21.206;2023-04-24T14:04:35;9.10;;;6.53;;
76194;SDS011;64964;48.694;21.206;2023-04-24T14:07:01;10.60;;;7.57;;
76194;SDS011;64964;48.694;21.206;2023-04-24T14:09:26;10.03;;;7.70;;
76194;SDS011;64964;48.694;21.206;2023-04-24T14:11:51;9.50;;;7.23;;
76194;SDS011;64964;48.694;21.206;2023-04-24T14:14:17;9.97;;;7.10;;
76194;SDS011;64964;48.694;21.206;2023-04-24T14:16:42;9.15;;;7.15;;
76194;SDS011;64964;48.694;21.206;2023-04-24T14:19:07;8.40;;;7.00;;
76194;SDS011;64964;48.694;21.206;2023-04-24T14:21:33;10.80;;;7.03;;
76194;SDS011;64964;48.694;21.206;2023-04-24T14:23:58;9.63;;;7.10;;
76194;SDS011;64964;48.694;21.206;2023-04-24T14:26:24;10.23;;;7.45;;
76194;SDS011;64964;48.694;21.206;2023-04-24T14:28:50;9.03;;;7.13;;
76194;SDS011;64964;48.694;21.206;2023-04-24T14:31:15;9.30;;;7.53;;
76194;SDS011;64964;48.694;21.206;2023-04-24T14:33:41;9.77;;;7.43;;
76194;SDS011;64964;48.694;21.206;2023-04-24T14:36:06;8.57;;;7.17;;
76194;SDS011;64964;48.694;21.206;2023-04-24T14:38:32;10.23;;;7.25;;
76194;SDS011;64964;48.694;21.206;2023-04-24T14:40:57;11.93;;;7.80;;